Latest Coastal Weather Observations for Flinders Reef

IDQ60701

Issued at 7:12 am EST Saturday 28 February 2015 (issued every 10 minutes, with the page automatically refreshed every 10 minutes)

About coastal observations | Map of coastal stations | Coastal observations for QLD | Marine services | Other Formats
Station Details ID: 200783 Name: FLINDERS REEF Lat: -17.72 Lon: 148.45 Height: 2.6 m
Data from the previous 72 hours. | See also: Recent months at Flinders Reef
Date/Time
EST
Temp

°C
Wind Pressure Rain
since 9am
mm
Weather Cloud Vis
km
Sea
Height
m
Swell
Dir
 
Speed
knots
Gust
knots
hPa Trend Height
m
Period
s
Dir
28/07:00am - S 4 5 1007.4 - - - - - - - - -
28/06:30am - S 5 6 1007.2 - - - - - - - - -
28/06:24am - S 5 - 1007.1 - - - - - - - - -
28/06:00am - E 5 6 1007.2 - - - - - - - - -
28/05:30am - E 4 6 1006.7 - - - - - - - - -
28/05:24am - E 3 - 1006.5 - - - - - - - - -
28/05:00am - E 3 4 1006.3 - - - - - - - - -
28/04:30am - E 2 4 1006.4 - - - - - - - - -
28/04:24am - E 1 - 1006.3 - - - - - - - - -
28/04:00am - CALM 0 1 1006.7 - - - - - - - - -
28/03:30am - E 1 4 1007.0 - - - - - - - - -
28/03:24am - CALM 0 - 1006.9 - - - - - - - - -
28/03:00am - E 4 5 1006.6 - - - - - - - - -
28/02:30am - E 4 6 1006.7 - - - - - - - - -
28/02:24am - E 5 - 1006.8 - - - - - - - - -
28/02:00am - E 5 6 1007.0 - - - - - - - - -
28/01:30am - E 5 6 1007.5 - - - - - - - - -
28/01:24am - E 5 - 1007.4 - - - - - - - - -
28/01:00am - E 4 5 1007.8 - - - - - - - - -
28/12:30am - E 5 6 1008.2 - - - - - - - - -
28/12:24am - E 4 - 1008.2 - - - - - - - - -
28/12:00am - E 6 7 1008.5 - - - - - - - - -
 
Date/Time
EST
Temp

°C
Wind Pressure Rain
since 9am
mm
Weather Cloud Vis
km
Sea
Height
m
Swell
Dir
 
Speed
knots
Gust
knots
hPa Trend Height
m
Period
s
Dir
27/11:30pm - E 6 8 1008.4 - - - - - - - - -
27/11:24pm - E 7 - 1008.4 - - - - - - - - -
27/11:00pm - E 7 9 1008.6 - - - - - - - - -
27/10:30pm - E 5 6 1008.8 - - - - - - - - -
27/10:24pm - E 5 - 1008.7 - - - - - - - - -
27/10:00pm - E 6 7 1008.6 - - - - - - - - -
27/09:30pm - E 7 9 1008.4 - - - - - - - - -
27/09:24pm - E 7 - 1008.2 - - - - - - - - -
27/09:00pm - E 7 10 1008.3 - - - - - - - - -
27/08:30pm - E 8 9 1007.9 - - - - - - - - -
27/08:24pm - E 8 - 1007.6 - - - - - - - - -
27/08:00pm - E 7 8 1007.6 - - - - - - - - -
27/07:30pm - E 5 6 1007.5 - - - - - - - - -
27/07:24pm - E 6 - 1007.2 - - - - - - - - -
27/07:00pm - SE 5 7 1006.8 - - - - - - - - -
27/06:30pm - ESE 5 7 1006.4 - - - - - - - - -
27/06:24pm - ESE 5 - 1006.2 - - - - - - - - -
27/06:00pm - ESE 5 7 1006.1 - - - - - - - - -
27/05:30pm - SE 5 6 1006.0 - - - - - - - - -
27/05:24pm - SE 5 - 1005.8 - - - - - - - - -
27/05:00pm - SE 5 6 1005.8 - - - - - - - - -
27/04:30pm - SE 5 7 1005.9 - - - - - - - - -
27/04:24pm - SE 5 - 1005.8 - - - - - - - - -
27/04:00pm - SE 5 7 1005.7 - - - - - - - - -
27/03:30pm - SE 6 8 1005.9 - - - - - - - - -
27/03:24pm - SE 6 - 1005.8 - - - - - - - - -
27/03:00pm - SE 5 7 1006.2 - - - - - - - - -
27/02:30pm - SE 6 7 1006.4 - - - - - - - - -
27/02:24pm - SE 6 - 1006.4 - - - - - - - - -
27/02:00pm - SE 6 7 1006.7 - - - - - - - - -
27/01:30pm - ESE 6 8 1006.8 - - - - - - - - -
27/01:24pm - ESE 6 - 1006.8 - - - - - - - - -
27/01:00pm - ESE 5 6 1007.2 - - - - - - - - -
27/12:30pm - ESE 5 7 1007.4 - - - - - - - - -
27/12:24pm - ESE 5 - 1007.4 - - - - - - - - -
27/12:00pm - ESE 5 8 1007.6 - - - - - - - - -
27/11:30am - ESE 4 5 1007.9 - - - - - - - - -
27/11:24am - ESE 3 - 1007.8 - - - - - - - - -
27/11:00am - CALM 0 0 1007.9 - - - - - - - - -
27/10:30am - CALM 0 0 1007.9 - - - - - - - - -
27/10:24am - CALM 0 - 1007.8 - - - - - - - - -
27/10:00am - ESE 1 4 1008.0 - - - - - - - - -
27/09:30am - CALM 0 4 1008.0 - - - - - - - - -
27/09:24am - CALM 0 - 1007.8 - - - - - - - - -
27/09:00am - ESE 3 5 1007.8 - - - - - - - - -
27/08:30am - ESE 1 4 1007.7 - - - - - - - - -
27/08:24am - CALM 0 - 1007.6 - - - - - - - - -
27/08:00am - ESE 1 4 1007.6 - - - - - - - - -
27/07:30am - ESE 3 4 1007.4 - - - - - - - - -
27/07:24am - ESE 2 - 1007.3 - - - - - - - - -
27/07:00am - ESE 4 5 1007.1 - - - - - - - - -
27/06:30am - ESE 5 6 1006.9 - - - - - - - - -
27/06:24am - ESE 5 - 1006.8 - - - - - - - - -
27/06:00am - ESE 5 7 1006.8 - - - - - - - - -
27/05:30am - E 5 6 1006.5 - - - - - - - - -
27/05:24am - E 5 - 1006.3 - - - - - - - - -
27/05:00am - E 5 6 1006.3 - - - - - - - - -
27/04:30am - E 6 7 1006.2 - - - - - - - - -
27/04:24am - E 6 - 1006.2 - - - - - - - - -
27/04:00am - E 7 9 1006.0 - - - - - - - - -
27/03:30am - E 7 9 1005.9 - - - - - - - - -
27/03:24am - E 8 - 1005.9 - - - - - - - - -
27/03:00am - E 9 13 1006.0 - - - - - - - - -
27/02:30am - E 9 10 1006.0 - - - - - - - - -
27/02:24am - E 10 - 1006.0 - - - - - - - - -
27/02:00am - E 11 13 1006.5 - - - - - - - - -
27/01:30am - E 11 13 1006.7 - - - - - - - - -
27/01:24am - E 10 - 1006.8 - - - - - - - - -
27/01:00am - E 11 13 1006.9 - - - - - - - - -
27/12:30am - E 11 13 1007.3 - - - - - - - - -
27/12:24am - E 11 - 1007.3 - - - - - - - - -
27/12:00am - E 12 14 1007.8 - - - - - - - - -
 
Date/Time
EST
Temp

°C
Wind Pressure Rain
since 9am
mm
Weather Cloud Vis
km
Sea
Height
m
Swell
Dir
 
Speed
knots
Gust
knots
hPa Trend Height
m
Period
s
Dir
26/11:30pm - E 12 14 1007.9 - - - - - - - - -
26/11:24pm - E 12 - 1007.9 - - - - - - - - -
26/11:00pm - ESE 13 15 1008.0 - - - - - - - - -
26/10:30pm - ESE 12 14 1008.0 - - - - - - - - -
26/10:24pm - ESE 12 - 1007.9 - - - - - - - - -
26/10:00pm - ESE 10 12 1007.9 - - - - - - - - -
26/09:30pm - SE 10 11 1007.6 - - - - - - - - -
26/09:24pm - SE 11 - 1007.5 - - - - - - - - -
26/09:00pm - SE 11 13 1007.3 - - - - - - - - -
26/08:30pm - ESE 12 14 1007.0 - - - - - - - - -
26/08:24pm - ESE 11 - 1006.9 - - - - - - - - -
26/08:00pm - SE 11 13 1006.6 - - - - - - - - -
26/07:30pm - SE 11 14 1006.4 - - - - - - - - -
26/07:24pm - SE 11 - 1006.2 - - - - - - - - -
26/07:00pm - SE 13 15 1005.9 - - - - - - - - -
26/06:30pm - SSE 12 14 1005.8 - - - - - - - - -
26/06:24pm - SSE 12 - 1005.7 - - - - - - - - -
26/06:00pm - SSE 13 14 1005.6 - - - - - - - - -
26/05:30pm - SSE 12 14 1005.5 - - - - - - - - -
26/05:24pm - SSE 11 - 1005.5 - - - - - - - - -
26/05:00pm - SSE 12 13 1005.5 - - - - - - - - -
26/04:30pm - SSE 12 14 1005.2 - - - - - - - - -
26/04:24pm - SSE 12 - 1005.1 - - - - - - - - -
26/04:00pm - SSE 12 15 1005.0 - - - - - - - - -
26/03:30pm - SSE 13 15 1005.1 - - - - - - - - -
26/03:24pm - SSE 13 - 1004.9 - - - - - - - - -
26/03:00pm - SSE 14 16 1005.1 - - - - - - - - -
26/02:30pm - SSE 14 16 1005.4 - - - - - - - - -
26/02:24pm - SSE 14 - 1005.3 - - - - - - - - -
26/02:00pm - SSE 13 16 1005.7 - - - - - - - - -
26/01:30pm - SSE 13 15 1005.9 - - - - - - - - -
26/01:24pm - SSE 13 - 1005.9 - - - - - - - - -
26/01:00pm - SSE 13 16 1006.3 - - - - - - - - -
26/12:30pm - SSE 13 17 1006.7 - - - - - - - - -
26/12:24pm - SSE 13 - 1006.6 - - - - - - - - -
26/12:00pm - SSE 13 15 1007.3 - - - - - - - - -
26/11:30am - SSE 14 15 1007.8 - - - - - - - - -
26/11:24am - SSE 13 - 1007.8 - - - - - - - - -
26/11:00am - SSE 13 15 1007.9 - - - - - - - - -
26/10:30am - SSE 13 15 1008.0 - - - - - - - - -
26/10:24am - SSE 13 - 1007.9 - - - - - - - - -
26/10:00am - SSE 12 15 1008.1 - - - - - - - - -
26/09:30am - SSE 13 16 1008.2 - - - - - - - - -
26/09:24am - SSE 12 - 1008.0 - - - - - - - - -
26/09:00am - SSE 11 13 1008.1 - - - - - - - - -
26/08:30am - SSE 10 12 1008.1 - - - - - - - - -
26/08:24am - SSE 10 - 1007.9 - - - - - - - - -
26/08:00am - SSE 11 12 1007.9 - - - - - - - - -
26/07:30am - SSE 10 11 1007.7 - - - - - - - - -
26/07:24am - SSE 10 - 1007.6 - - - - - - - - -
26/07:00am - SSE 10 13 1007.5 - - - - - - - - -
26/06:30am - SSE 12 15 1007.3 - - - - - - - - -
26/06:24am - SE 13 - 1007.1 - - - - - - - - -
26/06:00am - SE 13 15 1006.8 - - - - - - - - -
26/05:30am - SSE 13 15 1006.7 - - - - - - - - -
26/05:24am - SSE 13 - 1006.6 - - - - - - - - -
26/05:00am - SE 12 15 1006.7 - - - - - - - - -
26/04:30am - SE 12 15 1006.7 - - - - - - - - -
26/04:24am - SE 12 - 1006.5 - - - - - - - - -
26/04:00am - SE 12 14 1006.7 - - - - - - - - -
26/03:30am - SE 12 14 1006.4 - - - - - - - - -
26/03:24am - SE 12 - 1006.3 - - - - - - - - -
26/03:00am - SE 13 16 1006.3 - - - - - - - - -
26/02:30am - SE 12 14 1006.2 - - - - - - - - -
26/02:24am - SE 13 - 1006.2 - - - - - - - - -
26/02:00am - SE 14 17 1006.3 - - - - - - - - -
26/01:30am - SE 15 17 1006.4 - - - - - - - - -
26/01:24am - SE 15 - 1006.4 - - - - - - - - -
26/01:00am - SE 17 19 1006.9 - - - - - - - - -
26/12:30am - SE 14 17 1007.3 - - - - - - - - -
26/12:24am - SE 14 - 1007.3 - - - - - - - - -
26/12:00am - SE 15 17 1007.6 - - - - - - - - -
 
Date/Time
EST
Temp

°C
Wind Pressure Rain
since 9am
mm
Weather Cloud Vis
km
Sea
Height
m
Swell
Dir
 
Speed
knots
Gust
knots
hPa Trend Height
m
Period
s
Dir
25/11:30pm - SE 13 15 1007.9 - - - - - - - - -
25/11:24pm - SE 13 - 1007.9 - - - - - - - - -
25/11:00pm - SE 14 16 1008.0 - - - - - - - - -
25/10:30pm - SSE 14 17 1008.2 - - - - - - - - -
25/10:24pm - SSE 15 - 1008.0 - - - - - - - - -
25/10:00pm - SSE 14 17 1007.9 - - - - - - - - -
25/09:30pm - SE 15 17 1007.8 - - - - - - - - -
25/09:24pm - SE 15 - 1007.7 - - - - - - - - -
25/09:00pm - SE 12 14 1007.6 - - - - - - - - -
25/08:30pm - SE 11 13 1007.4 - - - - - - - - -
25/08:24pm - SE 12 - 1007.3 - - - - - - - - -
25/08:00pm - SE 13 14 1007.1 - - - - - - - - -
25/07:30pm - SE 14 16 1006.8 - - - - - - - - -
25/07:24pm - SE 14 - 1006.7 - - - - - - - - -
25/07:00pm - SSE 12 14 1007.0 - - - - - - - - -
25/06:30pm - S 11 13 1006.8 - - - - - - - - -
25/06:24pm - S 11 - 1006.6 - - - - - - - - -
25/06:00pm - S 11 13 1006.7 - - - - - - - - -
25/05:30pm - SSE 10 13 1006.2 - - - - - - - - -
25/05:24pm - SSE 10 - 1006.1 - - - - - - - - -
25/05:00pm - S 12 14 1005.9 - - - - - - - - -
25/04:30pm - S 12 14 1005.8 - - - - - - - - -
25/04:24pm - S 12 - 1005.8 - - - - - - - - -
25/04:00pm - SSE 11 13 1005.6 - - - - - - - - -
25/03:30pm - SSE 11 12 1005.8 - - - - - - - - -
25/03:24pm - SSE 11 - 1005.9 - - - - - - - - -
25/03:00pm - SSE 10 11 1006.4 - - - - - - - - -
25/02:30pm - SSE 9 11 1006.5 - - - - - - - - -
25/02:24pm - SSE 9 - 1006.5 - - - - - - - - -
25/02:00pm - SSE 8 9 1007.0 - - - - - - - - -
25/01:30pm - SE 9 11 1007.4 - - - - - - - - -
25/01:24pm - SE 9 - 1007.2 - - - - - - - - -
25/01:00pm - SSE 10 11 1007.6 - - - - - - - - -
25/12:30pm - SSE 11 13 1007.9 - - - - - - - - -
25/12:24pm - SSE 11 - 1007.8 - - - - - - - - -
25/12:00pm - SSE 10 11 1008.2 - - - - - - - - -
25/11:30am - SSE 10 12 1008.4 - - - - - - - - -
25/11:24am - SSE 10 - 1008.4 - - - - - - - - -
25/11:00am - SSE 9 11 1008.6 - - - - - - - - -
25/10:30am - SSE 8 9 1008.5 - - - - - - - - -
25/10:24am - SSE 9 - 1008.4 - - - - - - - - -
25/10:00am - ESE 8 9 1008.7 - - - - - - - - -
25/09:30am - ESE 9 11 1008.8 - - - - - - - - -
25/09:24am - ESE 10 - 1008.7 - - - - - - - - -
25/09:00am - ESE 10 11 1008.8 - - - - - - - - -
25/08:30am - ESE 11 13 1008.5 - - - - - - - - -
25/08:24am - ESE 11 - 1008.3 - - - - - - - - -
25/08:00am - ESE 11 13 1008.4 - - - - - - - - -
25/07:30am - ESE 10 12 1008.4 - - - - - - - - -
25/07:24am - ESE 11 - 1008.3 - - - - - - - - -

Other Formats:

Comma delimited format used in spreadsheet applications
http://www.bom.gov.au/fwo/IDQ60701/IDQ60701.94290.axf

JavaScript Object Notation format (JSON) in row-major order
http://www.bom.gov.au/fwo/IDQ60701/IDQ60701.94290.json